Ana Sayfa
METAR-TAF:

METAR-TAF

Havaalanları :

Bahreyn, Bahreyn

Enlem: 26-16N, Boylam: 050-39E, yükseklik: 2 m

Güncel hava durumu gözlemi

Rapor saat 14:30 UTC de 11 dakika önce yapıldı.
Rüzgar kuzeybatıdan 16 kt
Sıcaklık 16°C
Nem 59%
Basınç 1021 hPa
Görüş mesafesi 10 km veya daha fazla
2500 ft yükseklikte az bulutlu

METAR: OBBI 201430Z 32016KT 9999 FEW025 16/08 Q1021 NOSIG

Saat: 17:41 (14:41 UTC)

Tahmin

Rapor saat 11:00 UTC de 3 saat ve 41 dakika önce yapıldı.
Ayın 20'si saat 12 UTC'den ayın 21'si saat 18 UTC'ye kadar geçerli Tahmin
Rüzgar kuzeybatıdan 15 kt ve 25 kt'a kadar ani rüzgarlar
Görüş mesafesi 10 km veya daha fazla
2500 ft yükseklikte parçalı bulutlu
Dönüşüyor
ayın 20'si saat 18 UTC'den ayın 20'si saat 20 UTC'ye kadar
Rüzgar batı/kuzeybatıdan 15 kt

TAF: OBBI 201100Z 2012/2118 32015G25KT 9999 SCT025 BECMG 2018/2020 30015KT

4.000'den fazla havaalanı için hava durumu gözlemleri ve tahminleri (METAR ve TAF raporları).

Kullanılabilir istasyonlar harita üzerinde sarı ve kırmızı noktalarla gösterilir.

İstasyonun adını görmek için fareyi noktanın üzerinde gezdirin.

Sonrasında hava gözlem ve tahminlerini görmek için tıklayın.

Haritayı değiştirmek için: yaklaştırmak için siyah artı işaretli yeşil düğmeye ve uzaklaştırmak için de eksi işaretli düğmeye hızla tıklayın; bitişik haritalar için yeşil okları kullanın.


METAR-TAF: